sensor_id;sensor_type;location;lat;lon;timestamp;temperature;humidity
11619;DHT22;5865;48.776;9.280;2023-07-20T00:17:34;18.20;99.90
11619;DHT22;5865;48.776;9.280;2023-07-20T00:20:03;18.00;99.90
11619;DHT22;5865;48.776;9.280;2023-07-20T00:22:31;17.90;99.90
11619;DHT22;5865;48.776;9.280;2023-07-20T00:24:58;17.90;99.90
11619;DHT22;5865;48.776;9.280;2023-07-20T00:27:25;18.00;99.90
11619;DHT22;5865;48.776;9.280;2023-07-20T00:29:52;17.90;99.90
11619;DHT22;5865;48.776;9.280;2023-07-20T00:32:19;17.90;99.90
11619;DHT22;5865;48.776;9.280;2023-07-20T00:34:48;17.80;99.90
11619;DHT22;5865;48.776;9.280;2023-07-20T00:37:15;17.70;99.90
11619;DHT22;5865;48.776;9.280;2023-07-20T00:39:43;17.80;99.90
11619;DHT22;5865;48.776;9.280;2023-07-20T00:42:10;18.00;99.90
11619;DHT22;5865;48.776;9.280;2023-07-20T00:44:37;18.10;99.90
11619;DHT22;5865;48.776;9.280;2023-07-20T03:03:05;15.00;99.90
11619;DHT22;5865;48.776;9.280;2023-07-20T03:05:35;15.10;99.90
11619;DHT22;5865;48.776;9.280;2023-07-20T03:08:04;15.20;99.90
11619;DHT22;5865;48.776;9.280;2023-07-20T03:10:31;15.10;99.90
11619;DHT22;5865;48.776;9.280;2023-07-20T03:12:58;15.10;99.90
11619;DHT22;5865;48.776;9.280;2023-07-20T03:17:54;14.90;99.90
11619;DHT22;5865;48.776;9.280;2023-07-20T03:20:23;15.10;99.90
11619;DHT22;5865;48.776;9.280;2023-07-20T03:22:50;15.10;99.90
11619;DHT22;5865;48.776;9.280;2023-07-20T03:25:17;14.70;99.90
11619;DHT22;5865;48.776;9.280;2023-07-20T03:27:45;14.70;99.90
11619;DHT22;5865;48.776;9.280;2023-07-20T03:30:12;14.60;99.90
11619;DHT22;5865;48.776;9.280;2023-07-20T03:32:39;14.60;99.90
11619;DHT22;5865;48.776;9.280;2023-07-20T03:35:07;14.70;99.90
11619;DHT22;5865;48.776;9.280;2023-07-20T03:37:36;14.80;99.90
11619;DHT22;5865;48.776;9.280;2023-07-20T03:40:04;14.80;99.90
11619;DHT22;5865;48.776;9.280;2023-07-20T03:42:33;14.80;99.90
11619;DHT22;5865;48.776;9.280;2023-07-20T03:45:00;14.80;99.90
11619;DHT22;5865;48.776;9.280;2023-07-20T03:47:30;14.90;99.90
11619;DHT22;5865;48.776;9.280;2023-07-20T03:49:57;14.90;99.90
11619;DHT22;5865;48.776;9.280;2023-07-20T03:52:24;15.00;99.90
11619;DHT22;5865;48.776;9.280;2023-07-20T03:54:52;14.90;99.90
11619;DHT22;5865;48.776;9.280;2023-07-20T03:57:19;14.70;99.90
11619;DHT22;5865;48.776;9.280;2023-07-20T03:59:47;14.60;99.90
11619;DHT22;5865;48.776;9.280;2023-07-20T04:02:14;14.50;99.90
11619;DHT22;5865;48.776;9.280;2023-07-20T04:04:42;14.30;99.90
11619;DHT22;5865;48.776;9.280;2023-07-20T04:07:09;14.50;99.90
11619;DHT22;5865;48.776;9.280;2023-07-20T04:09:36;14.50;99.90
11619;DHT22;5865;48.776;9.280;2023-07-20T04:12:05;14.60;99.90
11619;DHT22;5865;48.776;9.280;2023-07-20T04:14:32;14.70;99.90
11619;DHT22;5865;48.776;9.280;2023-07-20T04:16:59;14.60;99.90
11619;DHT22;5865;48.776;9.280;2023-07-20T04:19:26;14.70;99.90
11619;DHT22;5865;48.776;9.280;2023-07-20T04:21:53;14.90;99.90
11619;DHT22;5865;48.776;9.280;2023-07-20T04:24:21;15.10;99.90
11619;DHT22;5865;48.776;9.280;2023-07-20T04:26:48;15.20;99.90
11619;DHT22;5865;48.776;9.280;2023-07-20T04:29:16;15.30;99.90
11619;DHT22;5865;48.776;9.280;2023-07-20T08:13:26;23.20;97.90
11619;DHT22;5865;48.776;9.280;2023-07-20T08:54:08;22.40;95.80
11619;DHT22;5865;48.776;9.280;2023-07-20T09:25:27;25.20;88.90
11619;DHT22;5865;48.776;9.280;2023-07-20T10:05:27;23.50;82.00
11619;DHT22;5865;48.776;9.280;2023-07-20T10:31:23;23.90;75.10
11619;DHT22;5865;48.776;9.280;2023-07-20T10:36:44;24.30;73.80
11619;DHT22;5865;48.776;9.280;2023-07-20T10:42:02;24.60;72.60
11619;DHT22;5865;48.776;9.280;2023-07-20T11:31:43;25.60;61.90
11619;DHT22;5865;48.776;9.280;2023-07-20T11:58:48;26.20;57.70
11619;DHT22;5865;48.776;9.280;2023-07-20T12:04:41;26.30;57.40
11619;DHT22;5865;48.776;9.280;2023-07-20T12:07:36;26.60;57.10
11619;DHT22;5865;48.776;9.280;2023-07-20T12:32:29;26.60;54.90
11619;DHT22;5865;48.776;9.280;2023-07-20T12:52:59;26.90;54.30
11619;DHT22;5865;48.776;9.280;2023-07-20T13:15:28;32.10;43.10
11619;DHT22;5865;48.776;9.280;2023-07-20T14:36:57;35.50;31.00
11619;DHT22;5865;48.776;9.280;2023-07-20T14:44:33;34.40;32.10
11619;DHT22;5865;48.776;9.280;2023-07-20T14:52:12;33.60;32.40
11619;DHT22;5865;48.776;9.280;2023-07-20T15:19:09;35.60;29.50
11619;DHT22;5865;48.776;9.280;2023-07-20T15:26:55;35.10;29.40
11619;DHT22;5865;48.776;9.280;2023-07-20T15:34:32;34.50;29.70
11619;DHT22;5865;48.776;9.280;2023-07-20T15:37:07;34.10;29.80
11619;DHT22;5865;48.776;9.280;2023-07-20T15:42:50;35.10;29.40
11619;DHT22;5865;48.776;9.280;2023-07-20T15:45:18;35.10;29.30
11619;DHT22;5865;48.776;9.280;2023-07-20T15:53:10;33.30;30.60
11619;DHT22;5865;48.776;9.280;2023-07-20T16:00:53;36.20;28.30
11619;DHT22;5865;48.776;9.280;2023-07-20T16:06:02;35.60;27.90
11619;DHT22;5865;48.776;9.280;2023-07-20T16:08:30;35.40;28.10
11619;DHT22;5865;48.776;9.280;2023-07-20T16:10:57;31.70;30.70
11619;DHT22;5865;48.776;9.280;2023-07-20T16:13:26;31.60;30.60
11619;DHT22;5865;48.776;9.280;2023-07-20T16:15:53;31.40;32.00
11619;DHT22;5865;48.776;9.280;2023-07-20T16:18:21;31.40;32.70
11619;DHT22;5865;48.776;9.280;2023-07-20T16:20:48;31.30;32.10
11619;DHT22;5865;48.776;9.280;2023-07-20T16:23:15;31.10;32.70
11619;DHT22;5865;48.776;9.280;2023-07-20T16:25:45;30.70;33.70
11619;DHT22;5865;48.776;9.280;2023-07-20T16:28:12;30.20;34.10
11619;DHT22;5865;48.776;9.280;2023-07-20T16:30:40;29.20;35.80
11619;DHT22;5865;48.776;9.280;2023-07-20T16:33:08;29.10;36.20
11619;DHT22;5865;48.776;9.280;2023-07-20T16:35:36;28.50;36.70
11619;DHT22;5865;48.776;9.280;2023-07-20T16:38:03;27.60;37.50
11619;DHT22;5865;48.776;9.280;2023-07-20T16:40:31;27.70;37.50
11619;DHT22;5865;48.776;9.280;2023-07-20T16:42:58;28.40;36.20
11619;DHT22;5865;48.776;9.280;2023-07-20T16:45:25;28.40;36.20
11619;DHT22;5865;48.776;9.280;2023-07-20T16:47:53;28.40;36.70
11619;DHT22;5865;48.776;9.280;2023-07-20T16:50:20;28.90;36.40
11619;DHT22;5865;48.776;9.280;2023-07-20T16:52:47;29.80;34.80
11619;DHT22;5865;48.776;9.280;2023-07-20T16:55:15;30.00;35.60
11619;DHT22;5865;48.776;9.280;2023-07-20T16:57:42;29.50;35.40
11619;DHT22;5865;48.776;9.280;2023-07-20T17:00:10;29.40;34.80
11619;DHT22;5865;48.776;9.280;2023-07-20T17:02:37;28.40;35.30
11619;DHT22;5865;48.776;9.280;2023-07-20T17:05:06;28.30;37.00
11619;DHT22;5865;48.776;9.280;2023-07-20T17:07:35;28.10;37.50
11619;DHT22;5865;48.776;9.280;2023-07-20T17:10:02;27.10;38.00
11619;DHT22;5865;48.776;9.280;2023-07-20T17:12:29;27.10;38.40
11619;DHT22;5865;48.776;9.280;2023-07-20T17:14:56;26.80;38.40
11619;DHT22;5865;48.776;9.280;2023-07-20T17:17:23;26.70;37.60
11619;DHT22;5865;48.776;9.280;2023-07-20T17:19:50;26.60;38.50
11619;DHT22;5865;48.776;9.280;2023-07-20T17:22:18;26.70;38.10
11619;DHT22;5865;48.776;9.280;2023-07-20T17:24:46;26.50;38.10
11619;DHT22;5865;48.776;9.280;2023-07-20T17:27:13;26.30;39.30
11619;DHT22;5865;48.776;9.280;2023-07-20T17:29:40;26.30;39.70
11619;DHT22;5865;48.776;9.280;2023-07-20T17:32:08;26.20;38.70
11619;DHT22;5865;48.776;9.280;2023-07-20T17:34:35;26.10;39.30
11619;DHT22;5865;48.776;9.280;2023-07-20T17:37:03;25.70;40.20
11619;DHT22;5865;48.776;9.280;2023-07-20T17:39:33;25.40;41.30
11619;DHT22;5865;48.776;9.280;2023-07-20T17:42:00;25.10;40.70
11619;DHT22;5865;48.776;9.280;2023-07-20T17:44:27;25.10;40.90
11619;DHT22;5865;48.776;9.280;2023-07-20T17:46:54;25.00;41.20
11619;DHT22;5865;48.776;9.280;2023-07-20T17:49:21;24.90;41.90
11619;DHT22;5865;48.776;9.280;2023-07-20T17:51:48;24.60;41.60
11619;DHT22;5865;48.776;9.280;2023-07-20T17:54:15;24.60;41.70
11619;DHT22;5865;48.776;9.280;2023-07-20T17:56:43;24.40;42.10
11619;DHT22;5865;48.776;9.280;2023-07-20T17:59:10;24.20;42.40
11619;DHT22;5865;48.776;9.280;2023-07-20T18:01:37;24.10;41.90
11619;DHT22;5865;48.776;9.280;2023-07-20T18:06:31;23.90;42.10
11619;DHT22;5865;48.776;9.280;2023-07-20T18:08:58;23.70;42.50
11619;DHT22;5865;48.776;9.280;2023-07-20T18:11:25;23.50;44.20
11619;DHT22;5865;48.776;9.280;2023-07-20T18:13:54;23.50;44.70
11619;DHT22;5865;48.776;9.280;2023-07-20T18:16:23;23.30;45.10
11619;DHT22;5865;48.776;9.280;2023-07-20T18:18:50;23.10;44.80
11619;DHT22;5865;48.776;9.280;2023-07-20T18:21:17;22.90;46.00
11619;DHT22;5865;48.776;9.280;2023-07-20T18:23:44;22.80;46.50
11619;DHT22;5865;48.776;9.280;2023-07-20T18:26:11;22.70;47.40
11619;DHT22;5865;48.776;9.280;2023-07-20T18:28:38;22.60;46.70
11619;DHT22;5865;48.776;9.280;2023-07-20T18:41:09;21.70;50.80
11619;DHT22;5865;48.776;9.280;2023-07-20T19:42:59;18.50;64.20
11619;DHT22;5865;48.776;9.280;2023-07-20T21:01:48;16.50;99.90
11619;DHT22;5865;48.776;9.280;2023-07-20T21:06:42;16.60;99.90
11619;DHT22;5865;48.776;9.280;2023-07-20T21:18:59;16.70;99.90
11619;DHT22;5865;48.776;9.280;2023-07-20T21:23:53;16.40;99.90
11619;DHT22;5865;48.776;9.280;2023-07-20T21:31:17;16.10;99.90
11619;DHT22;5865;48.776;9.280;2023-07-20T21:41:07;16.80;99.90
11619;DHT22;5865;48.776;9.280;2023-07-20T21:48:30;16.70;99.90
11619;DHT22;5865;48.776;9.280;2023-07-20T21:53:24;16.20;99.90
11619;DHT22;5865;48.776;9.280;2023-07-20T21:58:19;15.80;99.90
11619;DHT22;5865;48.776;9.280;2023-07-20T22:08:28;15.80;99.90
11619;DHT22;5865;48.776;9.280;2023-07-20T22:10:55;15.80;99.90
11619;DHT22;5865;48.776;9.280;2023-07-20T22:13:23;15.80;99.90
11619;DHT22;5865;48.776;9.280;2023-07-20T22:15:51;16.00;99.90
11619;DHT22;5865;48.776;9.280;2023-07-20T22:20:45;16.10;99.90
11619;DHT22;5865;48.776;9.280;2023-07-20T22:23:13;15.90;99.90
11619;DHT22;5865;48.776;9.280;2023-07-20T22:25:40;16.10;99.90
11619;DHT22;5865;48.776;9.280;2023-07-20T22:28:07;16.00;99.90
11619;DHT22;5865;48.776;9.280;2023-07-20T22:33:04;15.50;99.90
11619;DHT22;5865;48.776;9.280;2023-07-20T22:35:31;15.20;99.90
11619;DHT22;5865;48.776;9.280;2023-07-20T22:37:58;15.20;99.90
11619;DHT22;5865;48.776;9.280;2023-07-20T22:40:26;15.50;99.90
11619;DHT22;5865;48.776;9.280;2023-07-20T22:42:55;15.50;99.90
11619;DHT22;5865;48.776;9.280;2023-07-20T22:45:21;15.40;99.90
11619;DHT22;5865;48.776;9.280;2023-07-20T22:50:17;15.30;99.90
11619;DHT22;5865;48.776;9.280;2023-07-20T22:55:12;15.30;99.90
11619;DHT22;5865;48.776;9.280;2023-07-20T22:57:39;15.30;99.90
11619;DHT22;5865;48.776;9.280;2023-07-20T23:00:07;15.40;99.90
11619;DHT22;5865;48.776;9.280;2023-07-20T23:02:40;15.20;99.90
11619;DHT22;5865;48.776;9.280;2023-07-20T23:10:08;15.60;99.90
11619;DHT22;5865;48.776;9.280;2023-07-20T23:12:35;15.70;99.90
11619;DHT22;5865;48.776;9.280;2023-07-20T23:15:03;15.70;99.90
11619;DHT22;5865;48.776;9.280;2023-07-20T23:17:30;15.40;99.90
11619;DHT22;5865;48.776;9.280;2023-07-20T23:22:26;15.10;99.90
11619;DHT22;5865;48.776;9.280;2023-07-20T23:24:55;15.10;99.90
11619;DHT22;5865;48.776;9.280;2023-07-20T23:27:22;15.00;99.90
11619;DHT22;5865;48.776;9.280;2023-07-20T23:29:49;15.20;99.90
11619;DHT22;5865;48.776;9.280;2023-07-20T23:32:16;15.30;99.90
11619;DHT22;5865;48.776;9.280;2023-07-20T23:34:43;15.10;99.90
11619;DHT22;5865;48.776;9.280;2023-07-20T23:37:10;15.10;99.90
11619;DHT22;5865;48.776;9.280;2023-07-20T23:39:37;15.10;99.90
11619;DHT22;5865;48.776;9.280;2023-07-20T23:44:33;15.40;99.90
11619;DHT22;5865;48.776;9.280;2023-07-20T23:49:27;15.50;99.90
11619;DHT22;5865;48.776;9.280;2023-07-20T23:51:54;15.80;99.90
11619;DHT22;5865;48.776;9.280;2023-07-20T23:54:21;15.80;99.90
11619;DHT22;5865;48.776;9.280;2023-07-20T23:56:49;15.90;99.90
11619;DHT22;5865;48.776;9.280;2023-07-20T23:59:17;15.80;99.90
